sensor_id;sensor_type;location;lat;lon;timestamp;P1;durP1;ratioP1;P2;durP2;ratioP2
55603;SDS011;41468;48.838;9.330;2024-02-21T00:00:45;8.23;;;3.50;;
55603;SDS011;41468;48.838;9.330;2024-02-21T00:03:12;10.10;;;3.70;;
55603;SDS011;41468;48.838;9.330;2024-02-21T00:05:39;5.17;;;3.50;;
55603;SDS011;41468;48.838;9.330;2024-02-21T00:08:06;11.17;;;3.57;;
55603;SDS011;41468;48.838;9.330;2024-02-21T00:10:33;9.33;;;3.47;;
55603;SDS011;41468;48.838;9.330;2024-02-21T00:13:00;11.17;;;3.77;;
55603;SDS011;41468;48.838;9.330;2024-02-21T00:15:27;9.93;;;3.20;;
55603;SDS011;41468;48.838;9.330;2024-02-21T00:17:54;6.00;;;3.30;;
55603;SDS011;41468;48.838;9.330;2024-02-21T00:20:31;11.03;;;3.87;;
55603;SDS011;41468;48.838;9.330;2024-02-21T00:22:58;9.67;;;3.30;;
55603;SDS011;41468;48.838;9.330;2024-02-21T00:25:25;6.53;;;3.03;;
55603;SDS011;41468;48.838;9.330;2024-02-21T00:27:51;9.07;;;3.37;;
55603;SDS011;41468;48.838;9.330;2024-02-21T00:30:20;5.17;;;3.03;;
55603;SDS011;41468;48.838;9.330;2024-02-21T00:32:47;6.20;;;3.10;;
55603;SDS011;41468;48.838;9.330;2024-02-21T00:35:14;7.73;;;3.30;;
55603;SDS011;41468;48.838;9.330;2024-02-21T00:37:41;5.87;;;3.27;;
55603;SDS011;41468;48.838;9.330;2024-02-21T00:40:08;8.53;;;3.20;;
55603;SDS011;41468;48.838;9.330;2024-02-21T00:42:35;7.87;;;3.33;;
55603;SDS011;41468;48.838;9.330;2024-02-21T00:45:03;8.47;;;3.43;;
55603;SDS011;41468;48.838;9.330;2024-02-21T00:47:30;5.87;;;3.37;;
55603;SDS011;41468;48.838;9.330;2024-02-21T00:49:57;7.77;;;3.43;;
55603;SDS011;41468;48.838;9.330;2024-02-21T00:52:24;6.20;;;3.00;;
55603;SDS011;41468;48.838;9.330;2024-02-21T00:54:50;9.60;;;3.07;;
55603;SDS011;41468;48.838;9.330;2024-02-21T00:57:20;8.10;;;3.27;;
55603;SDS011;41468;48.838;9.330;2024-02-21T00:59:58;5.57;;;3.53;;
55603;SDS011;41468;48.838;9.330;2024-02-21T01:02:24;6.80;;;3.23;;
55603;SDS011;41468;48.838;9.330;2024-02-21T01:04:51;4.87;;;3.10;;
55603;SDS011;41468;48.838;9.330;2024-02-21T01:07:18;5.73;;;3.13;;
55603;SDS011;41468;48.838;9.330;2024-02-21T01:09:45;10.83;;;3.40;;
55603;SDS011;41468;48.838;9.330;2024-02-21T01:12:23;8.97;;;3.50;;
55603;SDS011;41468;48.838;9.330;2024-02-21T01:14:54;6.27;;;2.70;;
55603;SDS011;41468;48.838;9.330;2024-02-21T01:17:21;6.03;;;2.80;;
55603;SDS011;41468;48.838;9.330;2024-02-21T01:19:47;7.80;;;3.13;;
55603;SDS011;41468;48.838;9.330;2024-02-21T01:22:14;5.07;;;2.80;;
55603;SDS011;41468;48.838;9.330;2024-02-21T01:24:42;8.27;;;2.67;;
55603;SDS011;41468;48.838;9.330;2024-02-21T01:27:13;8.90;;;3.20;;
55603;SDS011;41468;48.838;9.330;2024-02-21T01:29:40;9.97;;;3.40;;
55603;SDS011;41468;48.838;9.330;2024-02-21T01:32:07;6.57;;;3.13;;
55603;SDS011;41468;48.838;9.330;2024-02-21T01:34:45;7.00;;;3.27;;
55603;SDS011;41468;48.838;9.330;2024-02-21T01:37:11;8.23;;;3.20;;
55603;SDS011;41468;48.838;9.330;2024-02-21T01:39:38;7.40;;;2.73;;
55603;SDS011;41468;48.838;9.330;2024-02-21T01:42:05;6.40;;;3.13;;
55603;SDS011;41468;48.838;9.330;2024-02-21T01:44:32;8.20;;;3.73;;
55603;SDS011;41468;48.838;9.330;2024-02-21T01:46:58;7.47;;;3.53;;
55603;SDS011;41468;48.838;9.330;2024-02-21T01:49:25;8.77;;;3.20;;
55603;SDS011;41468;48.838;9.330;2024-02-21T01:51:53;8.60;;;3.47;;
55603;SDS011;41468;48.838;9.330;2024-02-21T01:54:20;5.50;;;2.63;;
55603;SDS011;41468;48.838;9.330;2024-02-21T01:56:48;8.07;;;3.13;;
55603;SDS011;41468;48.838;9.330;2024-02-21T01:59:15;10.00;;;3.23;;
55603;SDS011;41468;48.838;9.330;2024-02-21T02:01:43;7.33;;;3.77;;
55603;SDS011;41468;48.838;9.330;2024-02-21T02:04:10;10.43;;;3.20;;
55603;SDS011;41468;48.838;9.330;2024-02-21T02:06:37;6.57;;;2.87;;
55603;SDS011;41468;48.838;9.330;2024-02-21T02:09:04;5.03;;;3.00;;
55603;SDS011;41468;48.838;9.330;2024-02-21T02:11:31;10.10;;;3.20;;
55603;SDS011;41468;48.838;9.330;2024-02-21T02:13:58;8.83;;;3.40;;
55603;SDS011;41468;48.838;9.330;2024-02-21T02:16:25;10.10;;;3.07;;
55603;SDS011;41468;48.838;9.330;2024-02-21T02:18:52;4.43;;;2.90;;
55603;SDS011;41468;48.838;9.330;2024-02-21T02:21:23;6.73;;;2.70;;
55603;SDS011;41468;48.838;9.330;2024-02-21T02:23:59;10.13;;;3.67;;
55603;SDS011;41468;48.838;9.330;2024-02-21T02:26:26;7.43;;;3.30;;
55603;SDS011;41468;48.838;9.330;2024-02-21T02:28:53;5.97;;;3.20;;
55603;SDS011;41468;48.838;9.330;2024-02-21T02:31:21;7.80;;;3.10;;
55603;SDS011;41468;48.838;9.330;2024-02-21T02:33:48;5.57;;;2.73;;
55603;SDS011;41468;48.838;9.330;2024-02-21T02:36:15;5.03;;;3.13;;
55603;SDS011;41468;48.838;9.330;2024-02-21T02:38:42;7.10;;;3.27;;
55603;SDS011;41468;48.838;9.330;2024-02-21T02:41:09;6.80;;;2.90;;
55603;SDS011;41468;48.838;9.330;2024-02-21T02:43:35;5.87;;;3.23;;
55603;SDS011;41468;48.838;9.330;2024-02-21T02:46:03;6.33;;;2.93;;
55603;SDS011;41468;48.838;9.330;2024-02-21T02:48:30;8.23;;;3.53;;
55603;SDS011;41468;48.838;9.330;2024-02-21T02:50:57;10.00;;;3.33;;
55603;SDS011;41468;48.838;9.330;2024-02-21T02:53:24;4.67;;;2.57;;
55603;SDS011;41468;48.838;9.330;2024-02-21T02:55:50;8.73;;;3.60;;
55603;SDS011;41468;48.838;9.330;2024-02-21T02:58:22;5.97;;;2.60;;
55603;SDS011;41468;48.838;9.330;2024-02-21T03:00:49;7.00;;;2.70;;
55603;SDS011;41468;48.838;9.330;2024-02-21T03:03:16;5.90;;;3.17;;
55603;SDS011;41468;48.838;9.330;2024-02-21T03:05:43;7.17;;;2.93;;
55603;SDS011;41468;48.838;9.330;2024-02-21T03:08:09;10.53;;;3.33;;
55603;SDS011;41468;48.838;9.330;2024-02-21T03:10:41;6.93;;;2.80;;
55603;SDS011;41468;48.838;9.330;2024-02-21T03:13:08;7.30;;;2.93;;
55603;SDS011;41468;48.838;9.330;2024-02-21T03:15:35;6.60;;;3.00;;
55603;SDS011;41468;48.838;9.330;2024-02-21T03:18:02;5.27;;;2.60;;
55603;SDS011;41468;48.838;9.330;2024-02-21T03:20:29;7.67;;;2.90;;
55603;SDS011;41468;48.838;9.330;2024-02-21T03:22:55;6.80;;;3.07;;
55603;SDS011;41468;48.838;9.330;2024-02-21T03:25:22;9.40;;;3.80;;
55603;SDS011;41468;48.838;9.330;2024-02-21T03:27:49;7.80;;;3.27;;
55603;SDS011;41468;48.838;9.330;2024-02-21T03:30:16;4.33;;;2.80;;
55603;SDS011;41468;48.838;9.330;2024-02-21T03:32:43;6.03;;;3.00;;
55603;SDS011;41468;48.838;9.330;2024-02-21T03:35:10;5.20;;;3.20;;
55603;SDS011;41468;48.838;9.330;2024-02-21T03:37:36;5.63;;;3.10;;
55603;SDS011;41468;48.838;9.330;2024-02-21T03:40:06;3.93;;;2.50;;
55603;SDS011;41468;48.838;9.330;2024-02-21T03:42:34;6.70;;;2.60;;
55603;SDS011;41468;48.838;9.330;2024-02-21T03:45:01;3.93;;;2.87;;
55603;SDS011;41468;48.838;9.330;2024-02-21T03:47:27;10.97;;;3.10;;
55603;SDS011;41468;48.838;9.330;2024-02-21T03:49:54;5.70;;;2.93;;
55603;SDS011;41468;48.838;9.330;2024-02-21T03:52:21;3.77;;;2.47;;
55603;SDS011;41468;48.838;9.330;2024-02-21T03:54:48;6.33;;;2.70;;
55603;SDS011;41468;48.838;9.330;2024-02-21T03:57:15;5.00;;;3.00;;
55603;SDS011;41468;48.838;9.330;2024-02-21T03:59:41;5.10;;;2.73;;
55603;SDS011;41468;48.838;9.330;2024-02-21T04:02:10;7.20;;;2.67;;
55603;SDS011;41468;48.838;9.330;2024-02-21T04:04:37;5.50;;;2.50;;
55603;SDS011;41468;48.838;9.330;2024-02-21T04:07:04;7.43;;;2.70;;
55603;SDS011;41468;48.838;9.330;2024-02-21T04:09:33;4.73;;;2.60;;
55603;SDS011;41468;48.838;9.330;2024-02-21T04:12:00;6.30;;;2.50;;
55603;SDS011;41468;48.838;9.330;2024-02-21T04:14:27;3.87;;;2.33;;
55603;SDS011;41468;48.838;9.330;2024-02-21T04:16:54;4.73;;;2.50;;
55603;SDS011;41468;48.838;9.330;2024-02-21T04:19:21;7.07;;;2.70;;
55603;SDS011;41468;48.838;9.330;2024-02-21T04:21:48;4.93;;;2.60;;
55603;SDS011;41468;48.838;9.330;2024-02-21T04:24:14;5.20;;;2.40;;
55603;SDS011;41468;48.838;9.330;2024-02-21T04:26:41;6.50;;;2.43;;
55603;SDS011;41468;48.838;9.330;2024-02-21T04:29:08;7.10;;;2.70;;
55603;SDS011;41468;48.838;9.330;2024-02-21T04:31:35;9.73;;;4.87;;
55603;SDS011;41468;48.838;9.330;2024-02-21T04:34:02;10.67;;;4.60;;
55603;SDS011;41468;48.838;9.330;2024-02-21T04:36:29;7.37;;;4.00;;
55603;SDS011;41468;48.838;9.330;2024-02-21T04:38:56;4.47;;;2.73;;
55603;SDS011;41468;48.838;9.330;2024-02-21T04:41:22;6.10;;;2.60;;
55603;SDS011;41468;48.838;9.330;2024-02-21T04:43:49;9.30;;;3.60;;
55603;SDS011;41468;48.838;9.330;2024-02-21T04:46:16;7.03;;;3.17;;
55603;SDS011;41468;48.838;9.330;2024-02-21T04:48:43;6.77;;;3.13;;
55603;SDS011;41468;48.838;9.330;2024-02-21T04:51:11;6.30;;;2.37;;
55603;SDS011;41468;48.838;9.330;2024-02-21T04:53:38;6.03;;;3.03;;
55603;SDS011;41468;48.838;9.330;2024-02-21T04:56:05;6.87;;;2.50;;
55603;SDS011;41468;48.838;9.330;2024-02-21T04:58:32;7.87;;;2.60;;
55603;SDS011;41468;48.838;9.330;2024-02-21T05:00:58;7.07;;;2.50;;
55603;SDS011;41468;48.838;9.330;2024-02-21T05:03:25;6.73;;;2.40;;
55603;SDS011;41468;48.838;9.330;2024-02-21T05:05:52;4.30;;;2.33;;
55603;SDS011;41468;48.838;9.330;2024-02-21T05:08:19;4.47;;;2.80;;
55603;SDS011;41468;48.838;9.330;2024-02-21T05:10:46;6.90;;;2.40;;
55603;SDS011;41468;48.838;9.330;2024-02-21T05:13:12;7.17;;;2.40;;
55603;SDS011;41468;48.838;9.330;2024-02-21T05:15:39;5.70;;;2.50;;
55603;SDS011;41468;48.838;9.330;2024-02-21T05:18:06;8.00;;;2.73;;
55603;SDS011;41468;48.838;9.330;2024-02-21T05:20:33;5.40;;;2.53;;
55603;SDS011;41468;48.838;9.330;2024-02-21T05:23:00;11.00;;;2.43;;
55603;SDS011;41468;48.838;9.330;2024-02-21T05:25:27;2.70;;;2.10;;
55603;SDS011;41468;48.838;9.330;2024-02-21T05:27:54;6.63;;;2.30;;
55603;SDS011;41468;48.838;9.330;2024-02-21T05:30:22;4.77;;;2.67;;
55603;SDS011;41468;48.838;9.330;2024-02-21T05:32:49;4.13;;;2.23;;
55603;SDS011;41468;48.838;9.330;2024-02-21T05:35:15;6.23;;;2.37;;
55603;SDS011;41468;48.838;9.330;2024-02-21T05:37:42;4.37;;;2.50;;
55603;SDS011;41468;48.838;9.330;2024-02-21T05:40:09;3.73;;;2.40;;
55603;SDS011;41468;48.838;9.330;2024-02-21T05:42:39;8.20;;;2.53;;
55603;SDS011;41468;48.838;9.330;2024-02-21T05:45:06;4.80;;;2.77;;
55603;SDS011;41468;48.838;9.330;2024-02-21T05:47:44;6.43;;;2.23;;
55603;SDS011;41468;48.838;9.330;2024-02-21T05:50:11;6.53;;;2.40;;
55603;SDS011;41468;48.838;9.330;2024-02-21T05:52:38;4.23;;;2.77;;
55603;SDS011;41468;48.838;9.330;2024-02-21T05:55:06;6.70;;;2.40;;
55603;SDS011;41468;48.838;9.330;2024-02-21T05:57:34;9.27;;;2.73;;
55603;SDS011;41468;48.838;9.330;2024-02-21T06:00:03;6.47;;;2.27;;
55603;SDS011;41468;48.838;9.330;2024-02-21T06:02:31;6.00;;;2.47;;
55603;SDS011;41468;48.838;9.330;2024-02-21T06:04:58;4.97;;;2.40;;
55603;SDS011;41468;48.838;9.330;2024-02-21T06:07:25;6.00;;;2.40;;
55603;SDS011;41468;48.838;9.330;2024-02-21T06:09:52;9.17;;;2.80;;
55603;SDS011;41468;48.838;9.330;2024-02-21T06:12:18;4.60;;;2.80;;
55603;SDS011;41468;48.838;9.330;2024-02-21T06:14:45;3.67;;;2.50;;
55603;SDS011;41468;48.838;9.330;2024-02-21T06:17:12;7.27;;;2.90;;
55603;SDS011;41468;48.838;9.330;2024-02-21T06:19:42;6.87;;;3.00;;
55603;SDS011;41468;48.838;9.330;2024-02-21T06:22:10;3.93;;;2.80;;
55603;SDS011;41468;48.838;9.330;2024-02-21T06:24:37;6.37;;;3.17;;
55603;SDS011;41468;48.838;9.330;2024-02-21T06:27:04;5.00;;;2.70;;
55603;SDS011;41468;48.838;9.330;2024-02-21T06:29:36;5.13;;;3.00;;
55603;SDS011;41468;48.838;9.330;2024-02-21T06:32:03;5.17;;;2.87;;
55603;SDS011;41468;48.838;9.330;2024-02-21T06:34:31;4.93;;;2.40;;
55603;SDS011;41468;48.838;9.330;2024-02-21T06:37:00;6.10;;;2.70;;
55603;SDS011;41468;48.838;9.330;2024-02-21T06:39:38;7.33;;;2.97;;
55603;SDS011;41468;48.838;9.330;2024-02-21T06:42:07;4.43;;;2.80;;
55603;SDS011;41468;48.838;9.330;2024-02-21T06:44:33;7.60;;;3.27;;
55603;SDS011;41468;48.838;9.330;2024-02-21T06:47:07;7.03;;;2.47;;
55603;SDS011;41468;48.838;9.330;2024-02-21T06:49:35;5.27;;;2.53;;
55603;SDS011;41468;48.838;9.330;2024-02-21T06:52:04;4.83;;;2.47;;
55603;SDS011;41468;48.838;9.330;2024-02-21T06:54:31;7.53;;;2.60;;
55603;SDS011;41468;48.838;9.330;2024-02-21T06:56:58;6.00;;;2.60;;
55603;SDS011;41468;48.838;9.330;2024-02-21T06:59:25;4.20;;;2.17;;
55603;SDS011;41468;48.838;9.330;2024-02-21T07:01:53;4.77;;;2.10;;
55603;SDS011;41468;48.838;9.330;2024-02-21T07:04:22;5.93;;;2.63;;
55603;SDS011;41468;48.838;9.330;2024-02-21T07:06:49;5.57;;;2.80;;
55603;SDS011;41468;48.838;9.330;2024-02-21T07:09:16;6.63;;;2.47;;
55603;SDS011;41468;48.838;9.330;2024-02-21T07:11:42;5.43;;;2.60;;
55603;SDS011;41468;48.838;9.330;2024-02-21T07:14:09;3.43;;;2.33;;
55603;SDS011;41468;48.838;9.330;2024-02-21T07:16:36;4.97;;;2.43;;
55603;SDS011;41468;48.838;9.330;2024-02-21T07:19:08;6.33;;;2.83;;
55603;SDS011;41468;48.838;9.330;2024-02-21T07:21:35;9.23;;;2.63;;
55603;SDS011;41468;48.838;9.330;2024-02-21T07:24:04;6.03;;;2.60;;
55603;SDS011;41468;48.838;9.330;2024-02-21T07:26:35;5.60;;;2.60;;
55603;SDS011;41468;48.838;9.330;2024-02-21T07:29:02;6.27;;;2.73;;
55603;SDS011;41468;48.838;9.330;2024-02-21T07:31:29;5.70;;;2.60;;
55603;SDS011;41468;48.838;9.330;2024-02-21T07:33:56;5.43;;;2.60;;
55603;SDS011;41468;48.838;9.330;2024-02-21T07:36:28;5.50;;;2.80;;
55603;SDS011;41468;48.838;9.330;2024-02-21T07:38:57;9.47;;;3.10;;
55603;SDS011;41468;48.838;9.330;2024-02-21T07:41:24;5.97;;;2.40;;
55603;SDS011;41468;48.838;9.330;2024-02-21T07:43:51;7.53;;;2.33;;
55603;SDS011;41468;48.838;9.330;2024-02-21T07:46:18;2.60;;;2.23;;
55603;SDS011;41468;48.838;9.330;2024-02-21T07:48:45;7.30;;;2.50;;
55603;SDS011;41468;48.838;9.330;2024-02-21T07:51:13;5.73;;;2.53;;
55603;SDS011;41468;48.838;9.330;2024-02-21T07:53:40;8.50;;;2.83;;
55603;SDS011;41468;48.838;9.330;2024-02-21T07:56:15;5.97;;;2.50;;
55603;SDS011;41468;48.838;9.330;2024-02-21T07:58:42;4.97;;;2.67;;
55603;SDS011;41468;48.838;9.330;2024-02-21T08:01:09;3.30;;;2.47;;
55603;SDS011;41468;48.838;9.330;2024-02-21T08:03:36;5.50;;;2.37;;
55603;SDS011;41468;48.838;9.330;2024-02-21T08:06:03;6.17;;;2.70;;
55603;SDS011;41468;48.838;9.330;2024-02-21T08:08:30;5.13;;;2.60;;
55603;SDS011;41468;48.838;9.330;2024-02-21T08:10:57;4.53;;;2.43;;
55603;SDS011;41468;48.838;9.330;2024-02-21T08:13:24;3.87;;;2.50;;
55603;SDS011;41468;48.838;9.330;2024-02-21T08:15:50;5.70;;;2.87;;
55603;SDS011;41468;48.838;9.330;2024-02-21T08:18:17;4.90;;;2.70;;
55603;SDS011;41468;48.838;9.330;2024-02-21T08:20:44;6.33;;;2.80;;
55603;SDS011;41468;48.838;9.330;2024-02-21T08:23:11;4.97;;;2.77;;
55603;SDS011;41468;48.838;9.330;2024-02-21T08:25:38;5.83;;;2.63;;
55603;SDS011;41468;48.838;9.330;2024-02-21T08:28:05;6.23;;;2.70;;
55603;SDS011;41468;48.838;9.330;2024-02-21T08:30:32;5.70;;;2.63;;
55603;SDS011;41468;48.838;9.330;2024-02-21T08:32:59;5.23;;;2.47;;
55603;SDS011;41468;48.838;9.330;2024-02-21T08:35:26;7.53;;;2.90;;
55603;SDS011;41468;48.838;9.330;2024-02-21T08:37:52;6.90;;;2.60;;
55603;SDS011;41468;48.838;9.330;2024-02-21T08:40:19;5.87;;;2.63;;
55603;SDS011;41468;48.838;9.330;2024-02-21T08:42:48;4.23;;;2.70;;
55603;SDS011;41468;48.838;9.330;2024-02-21T08:45:16;5.10;;;2.30;;
55603;SDS011;41468;48.838;9.330;2024-02-21T08:47:43;6.63;;;2.80;;
55603;SDS011;41468;48.838;9.330;2024-02-21T08:50:11;11.07;;;2.70;;
55603;SDS011;41468;48.838;9.330;2024-02-21T08:52:52;5.27;;;2.83;;
55603;SDS011;41468;48.838;9.330;2024-02-21T08:55:20;6.70;;;2.50;;
55603;SDS011;41468;48.838;9.330;2024-02-21T08:57:58;6.97;;;3.03;;
55603;SDS011;41468;48.838;9.330;2024-02-21T09:00:27;4.20;;;2.10;;
55603;SDS011;41468;48.838;9.330;2024-02-21T09:03:05;6.70;;;2.27;;
55603;SDS011;41468;48.838;9.330;2024-02-21T09:05:31;4.37;;;2.23;;
55603;SDS011;41468;48.838;9.330;2024-02-21T09:07:58;6.53;;;2.57;;
55603;SDS011;41468;48.838;9.330;2024-02-21T09:10:25;2.73;;;2.43;;
55603;SDS011;41468;48.838;9.330;2024-02-21T09:12:52;8.43;;;2.30;;
55603;SDS011;41468;48.838;9.330;2024-02-21T09:15:19;5.90;;;1.90;;
55603;SDS011;41468;48.838;9.330;2024-02-21T09:17:46;4.80;;;2.43;;
55603;SDS011;41468;48.838;9.330;2024-02-21T09:20:13;3.73;;;2.07;;
55603;SDS011;41468;48.838;9.330;2024-02-21T09:22:43;8.57;;;2.63;;
55603;SDS011;41468;48.838;9.330;2024-02-21T09:25:10;3.43;;;2.10;;
55603;SDS011;41468;48.838;9.330;2024-02-21T09:27:38;6.37;;;2.33;;
55603;SDS011;41468;48.838;9.330;2024-02-21T09:30:05;4.80;;;2.30;;
55603;SDS011;41468;48.838;9.330;2024-02-21T09:32:33;7.17;;;2.13;;
55603;SDS011;41468;48.838;9.330;2024-02-21T09:35:00;3.73;;;1.87;;
55603;SDS011;41468;48.838;9.330;2024-02-21T09:37:37;3.57;;;2.07;;
55603;SDS011;41468;48.838;9.330;2024-02-21T09:40:05;3.93;;;2.07;;
55603;SDS011;41468;48.838;9.330;2024-02-21T09:42:39;9.43;;;2.30;;
55603;SDS011;41468;48.838;9.330;2024-02-21T09:45:22;4.07;;;1.90;;
55603;SDS011;41468;48.838;9.330;2024-02-21T09:47:55;3.63;;;2.00;;
55603;SDS011;41468;48.838;9.330;2024-02-21T09:50:25;3.45;;;1.88;;
55603;SDS011;41468;48.838;9.330;2024-02-21T09:52:53;5.07;;;1.83;;
55603;SDS011;41468;48.838;9.330;2024-02-21T09:55:21;4.60;;;2.05;;
55603;SDS011;41468;48.838;9.330;2024-02-21T09:57:49;5.95;;;2.20;;
55603;SDS011;41468;48.838;9.330;2024-02-21T10:00:16;6.00;;;2.03;;
55603;SDS011;41468;48.838;9.330;2024-02-21T10:02:48;7.38;;;2.20;;
55603;SDS011;41468;48.838;9.330;2024-02-21T10:05:16;6.32;;;2.00;;
55603;SDS011;41468;48.838;9.330;2024-02-21T10:07:44;3.85;;;1.95;;
55603;SDS011;41468;48.838;9.330;2024-02-21T10:10:11;5.43;;;2.38;;
55603;SDS011;41468;48.838;9.330;2024-02-21T10:12:47;5.20;;;2.50;;
55603;SDS011;41468;48.838;9.330;2024-02-21T10:15:19;5.72;;;2.00;;
55603;SDS011;41468;48.838;9.330;2024-02-21T10:17:46;5.32;;;2.20;;
55603;SDS011;41468;48.838;9.330;2024-02-21T10:20:13;4.63;;;2.05;;
55603;SDS011;41468;48.838;9.330;2024-02-21T10:22:41;5.75;;;2.20;;
55603;SDS011;41468;48.838;9.330;2024-02-21T10:25:11;4.20;;;2.28;;
55603;SDS011;41468;48.838;9.330;2024-02-21T10:27:39;4.45;;;1.90;;
55603;SDS011;41468;48.838;9.330;2024-02-21T10:30:07;5.85;;;2.17;;
55603;SDS011;41468;48.838;9.330;2024-02-21T10:32:47;5.95;;;1.95;;
55603;SDS011;41468;48.838;9.330;2024-02-21T10:35:24;4.28;;;1.88;;
55603;SDS011;41468;48.838;9.330;2024-02-21T10:37:52;6.95;;;2.30;;
55603;SDS011;41468;48.838;9.330;2024-02-21T10:42:55;3.03;;;1.48;;
55603;SDS011;41468;48.838;9.330;2024-02-21T10:45:34;3.53;;;2.00;;
55603;SDS011;41468;48.838;9.330;2024-02-21T10:51:35;6.90;;;2.00;;
55603;SDS011;41468;48.838;9.330;2024-02-21T10:53:45;3.85;;;1.83;;
55603;SDS011;41468;48.838;9.330;2024-02-21T10:56:31;4.68;;;2.35;;
55603;SDS011;41468;48.838;9.330;2024-02-21T10:59:06;4.22;;;1.80;;
55603;SDS011;41468;48.838;9.330;2024-02-21T11:01:34;4.40;;;1.88;;
55603;SDS011;41468;48.838;9.330;2024-02-21T11:04:07;3.17;;;1.98;;
55603;SDS011;41468;48.838;9.330;2024-02-21T11:06:35;2.85;;;1.63;;
55603;SDS011;41468;48.838;9.330;2024-02-21T11:09:04;4.97;;;1.73;;
55603;SDS011;41468;48.838;9.330;2024-02-21T11:11:38;7.03;;;2.28;;
55603;SDS011;41468;48.838;9.330;2024-02-21T11:16:38;4.93;;;1.83;;
55603;SDS011;41468;48.838;9.330;2024-02-21T11:19:09;5.93;;;2.08;;
55603;SDS011;41468;48.838;9.330;2024-02-21T11:21:46;5.25;;;2.03;;
55603;SDS011;41468;48.838;9.330;2024-02-21T11:24:25;7.22;;;2.08;;
55603;SDS011;41468;48.838;9.330;2024-02-21T11:27:18;5.55;;;2.25;;
55603;SDS011;41468;48.838;9.330;2024-02-21T11:29:54;2.53;;;1.60;;
55603;SDS011;41468;48.838;9.330;2024-02-21T11:32:22;2.70;;;1.58;;
55603;SDS011;41468;48.838;9.330;2024-02-21T11:34:53;4.07;;;1.58;;
55603;SDS011;41468;48.838;9.330;2024-02-21T11:37:30;8.52;;;1.52;;
55603;SDS011;41468;48.838;9.330;2024-02-21T11:40:00;2.92;;;1.52;;
55603;SDS011;41468;48.838;9.330;2024-02-21T11:42:27;4.05;;;1.67;;
55603;SDS011;41468;48.838;9.330;2024-02-21T11:44:59;6.78;;;2.10;;
55603;SDS011;41468;48.838;9.330;2024-02-21T11:47:28;3.35;;;1.50;;
55603;SDS011;41468;48.838;9.330;2024-02-21T11:49:56;2.88;;;1.50;;
55603;SDS011;41468;48.838;9.330;2024-02-21T11:52:23;5.65;;;2.00;;
55603;SDS011;41468;48.838;9.330;2024-02-21T11:54:53;3.60;;;1.80;;
55603;SDS011;41468;48.838;9.330;2024-02-21T11:57:21;4.65;;;1.58;;
55603;SDS011;41468;48.838;9.330;2024-02-21T11:59:48;3.05;;;1.67;;
55603;SDS011;41468;48.838;9.330;2024-02-21T12:02:19;2.58;;;1.60;;
55603;SDS011;41468;48.838;9.330;2024-02-21T12:04:46;3.97;;;1.70;;
55603;SDS011;41468;48.838;9.330;2024-02-21T12:07:14;4.22;;;1.95;;
55603;SDS011;41468;48.838;9.330;2024-02-21T12:09:41;4.22;;;1.67;;
55603;SDS011;41468;48.838;9.330;2024-02-21T12:12:08;4.70;;;1.85;;
55603;SDS011;41468;48.838;9.330;2024-02-21T12:14:35;5.82;;;1.88;;
55603;SDS011;41468;48.838;9.330;2024-02-21T12:17:02;4.35;;;1.80;;
55603;SDS011;41468;48.838;9.330;2024-02-21T12:19:33;6.78;;;2.00;;
55603;SDS011;41468;48.838;9.330;2024-02-21T12:22:01;4.93;;;1.98;;
55603;SDS011;41468;48.838;9.330;2024-02-21T12:24:32;4.50;;;1.80;;
55603;SDS011;41468;48.838;9.330;2024-02-21T12:26:59;4.00;;;1.45;;
55603;SDS011;41468;48.838;9.330;2024-02-21T12:29:30;3.17;;;1.75;;
55603;SDS011;41468;48.838;9.330;2024-02-21T12:31:56;5.20;;;1.40;;
55603;SDS011;41468;48.838;9.330;2024-02-21T12:34:23;2.40;;;1.40;;
55603;SDS011;41468;48.838;9.330;2024-02-21T12:37:10;6.40;;;1.92;;
55603;SDS011;41468;48.838;9.330;2024-02-21T12:39:40;4.38;;;1.38;;
55603;SDS011;41468;48.838;9.330;2024-02-21T12:42:06;4.68;;;1.50;;
55603;SDS011;41468;48.838;9.330;2024-02-21T12:44:33;4.15;;;1.35;;
55603;SDS011;41468;48.838;9.330;2024-02-21T12:47:00;5.05;;;1.40;;
55603;SDS011;41468;48.838;9.330;2024-02-21T12:49:27;2.33;;;1.30;;
55603;SDS011;41468;48.838;9.330;2024-02-21T12:51:56;4.38;;;1.23;;
55603;SDS011;41468;48.838;9.330;2024-02-21T12:54:23;2.63;;;1.25;;
55603;SDS011;41468;48.838;9.330;2024-02-21T12:56:50;1.70;;;1.27;;
55603;SDS011;41468;48.838;9.330;2024-02-21T12:59:16;2.53;;;1.20;;
55603;SDS011;41468;48.838;9.330;2024-02-21T13:01:43;3.28;;;1.67;;
55603;SDS011;41468;48.838;9.330;2024-02-21T13:04:10;4.17;;;1.50;;
55603;SDS011;41468;48.838;9.330;2024-02-21T13:06:38;2.28;;;1.20;;
55603;SDS011;41468;48.838;9.330;2024-02-21T13:09:05;1.40;;;1.20;;
55603;SDS011;41468;48.838;9.330;2024-02-21T13:11:34;1.92;;;1.30;;
55603;SDS011;41468;48.838;9.330;2024-02-21T13:14:01;3.40;;;0.98;;
55603;SDS011;41468;48.838;9.330;2024-02-21T13:16:28;2.45;;;1.25;;
55603;SDS011;41468;48.838;9.330;2024-02-21T13:18:55;1.85;;;1.00;;
55603;SDS011;41468;48.838;9.330;2024-02-21T13:21:22;1.50;;;1.13;;
55603;SDS011;41468;48.838;9.330;2024-02-21T13:23:49;3.67;;;1.20;;
55603;SDS011;41468;48.838;9.330;2024-02-21T13:26:16;1.83;;;1.23;;
55603;SDS011;41468;48.838;9.330;2024-02-21T13:28:43;1.63;;;1.10;;
55603;SDS011;41468;48.838;9.330;2024-02-21T13:31:11;1.25;;;1.15;;
55603;SDS011;41468;48.838;9.330;2024-02-21T13:33:38;2.70;;;1.27;;
55603;SDS011;41468;48.838;9.330;2024-02-21T13:36:05;1.25;;;1.10;;
55603;SDS011;41468;48.838;9.330;2024-02-21T13:38:43;1.40;;;1.30;;
55603;SDS011;41468;48.838;9.330;2024-02-21T13:41:10;3.30;;;1.67;;
55603;SDS011;41468;48.838;9.330;2024-02-21T13:43:37;2.75;;;1.50;;
55603;SDS011;41468;48.838;9.330;2024-02-21T13:46:03;1.20;;;1.10;;
55603;SDS011;41468;48.838;9.330;2024-02-21T13:48:31;1.45;;;1.08;;
55603;SDS011;41468;48.838;9.330;2024-02-21T13:51:11;2.55;;;1.10;;
55603;SDS011;41468;48.838;9.330;2024-02-21T13:53:38;3.47;;;1.23;;
55603;SDS011;41468;48.838;9.330;2024-02-21T13:56:05;1.77;;;1.20;;
55603;SDS011;41468;48.838;9.330;2024-02-21T13:58:32;1.33;;;1.13;;
55603;SDS011;41468;48.838;9.330;2024-02-21T14:00:59;2.72;;;1.40;;
55603;SDS011;41468;48.838;9.330;2024-02-21T14:03:27;3.50;;;1.47;;
55603;SDS011;41468;48.838;9.330;2024-02-21T14:05:54;2.33;;;1.20;;
55603;SDS011;41468;48.838;9.330;2024-02-21T14:08:21;1.80;;;1.17;;
55603;SDS011;41468;48.838;9.330;2024-02-21T14:10:50;1.10;;;1.00;;
55603;SDS011;41468;48.838;9.330;2024-02-21T14:13:17;1.33;;;1.10;;
55603;SDS011;41468;48.838;9.330;2024-02-21T14:15:44;1.83;;;1.00;;
55603;SDS011;41468;48.838;9.330;2024-02-21T14:18:16;1.10;;;0.90;;
55603;SDS011;41468;48.838;9.330;2024-02-21T14:20:43;2.70;;;1.17;;
55603;SDS011;41468;48.838;9.330;2024-02-21T14:23:10;1.57;;;1.47;;
55603;SDS011;41468;48.838;9.330;2024-02-21T14:25:37;1.03;;;0.97;;
55603;SDS011;41468;48.838;9.330;2024-02-21T14:28:06;1.75;;;1.30;;
55603;SDS011;41468;48.838;9.330;2024-02-21T14:30:35;1.10;;;1.00;;
55603;SDS011;41468;48.838;9.330;2024-02-21T14:33:02;2.28;;;1.17;;
55603;SDS011;41468;48.838;9.330;2024-02-21T14:35:29;1.27;;;1.10;;
55603;SDS011;41468;48.838;9.330;2024-02-21T14:37:56;1.15;;;0.90;;
55603;SDS011;41468;48.838;9.330;2024-02-21T14:40:24;2.47;;;0.98;;
55603;SDS011;41468;48.838;9.330;2024-02-21T14:42:51;3.33;;;1.00;;
55603;SDS011;41468;48.838;9.330;2024-02-21T14:45:19;1.65;;;1.23;;
55603;SDS011;41468;48.838;9.330;2024-02-21T14:47:45;1.38;;;1.02;;
55603;SDS011;41468;48.838;9.330;2024-02-21T14:50:12;2.05;;;1.00;;
55603;SDS011;41468;48.838;9.330;2024-02-21T14:52:39;2.27;;;1.07;;
55603;SDS011;41468;48.838;9.330;2024-02-21T14:55:06;1.15;;;0.90;;
55603;SDS011;41468;48.838;9.330;2024-02-21T14:57:33;1.47;;;1.00;;
55603;SDS011;41468;48.838;9.330;2024-02-21T15:00:00;2.97;;;1.10;;
55603;SDS011;41468;48.838;9.330;2024-02-21T15:02:27;1.83;;;1.08;;